Time;durP1;ratioP1;P1;durP2;ratioP2;P2;SDS_P1;SDS_P2;PMS_P1;PMS_P2;Temp;Humidity;BMP_temperature;BMP_pressure;BME280_temperature;BME280_humidity;BME280_pressure;Samples;Min_cycle;Max_cycle;Signal;HPM_P1;HPM_P2
2021/08/08 00:06:08;;;;;;;1.15;0.40;;;23.70;99.90;;;;;;20623955;28;20227;-83
2021/08/08 00:16:29;;;;;;;0.40;0.22;;;23.50;99.90;;;;;;20590654;23;20322;-85
2021/08/08 00:26:34;;;;;;;0.20;0.10;;;23.40;99.90;;;;;;20640358;28;20227;-81
2021/08/08 00:36:39;;;;;;;0.20;0.13;;;23.30;99.90;;;;;;20598080;28;20794;-77
2021/08/08 00:46:42;;;;;;;0.25;0.10;;;23.10;99.90;;;;;;20614788;28;20506;-75
2021/08/08 00:56:48;;;;;;;0.30;0.30;;;23.00;99.90;;;;;;20612693;28;20194;-84
2021/08/08 01:07:10;;;;;;;0.22;0.15;;;22.90;99.90;;;;;;20638198;28;20227;-81
2021/08/08 01:17:22;;;;;;;0.50;0.33;;;22.70;99.90;;;;;;20619907;28;20620;-77
2021/08/08 01:27:30;;;;;;;0.20;0.20;;;22.70;99.90;;;;;;20638277;28;20539;-78
2021/08/08 01:37:35;;;;;;;0.30;0.10;;;22.70;99.90;;;;;;20616617;28;20195;-79
2021/08/08 01:47:48;;;;;;;0.27;0.27;;;22.80;99.90;;;;;;20599777;28;20239;-82
2021/08/08 01:57:52;;;;;;;0.50;0.30;;;22.80;99.90;;;;;;20588598;28;20913;-84
2021/08/08 02:07:58;;;;;;;0.40;0.40;;;22.90;99.90;;;;;;20626168;28;20744;-85
2021/08/08 02:18:02;;;;;;;0.20;0.20;;;22.90;99.90;;;;;;20724532;28;20229;-82
2021/08/08 02:28:08;;;;;;;1.15;0.28;;;23.00;99.90;;;;;;20694804;28;20681;-79
2021/08/08 02:38:12;;;;;;;0.20;0.17;;;22.80;99.90;;;;;;20707583;28;20997;-76
2021/08/08 02:48:17;;;;;;;0.30;0.25;;;22.90;99.90;;;;;;20704944;28;20222;-81
2021/08/08 02:58:21;;;;;;;0.40;0.15;;;22.80;99.90;;;;;;20725018;28;20217;-77
2021/08/08 03:08:27;;;;;;;1.15;0.32;;;22.80;99.90;;;;;;20663107;28;20690;-79
2021/08/08 03:18:34;;;;;;;0.97;0.80;;;22.80;99.90;;;;;;20624607;28;20718;-80
2021/08/08 03:28:40;;;;;;;1.20;0.37;;;22.70;99.90;;;;;;20605912;28;20559;-77
2021/08/08 03:38:44;;;;;;;1.03;0.40;;;22.70;99.90;;;;;;20622618;28;20199;-78
2021/08/08 03:48:49;;;;;;;0.20;0.10;;;22.40;99.90;;;;;;20616222;28;21102;-79
2021/08/08 03:58:53;;;;;;;0.30;0.17;;;22.10;99.90;;;;;;20624528;28;20536;-81
2021/08/08 04:08:59;;;;;;;0.63;0.40;;;22.00;99.90;;;;;;20671087;28;20245;-76
2021/08/08 04:19:03;;;;;;;0.20;0.10;;;21.90;99.90;;;;;;20686414;28;20608;-77
2021/08/08 04:29:11;;;;;;;0.20;0.10;;;21.80;99.90;;;;;;20700396;28;20205;-79
2021/08/08 04:39:14;;;;;;;0.20;0.17;;;21.80;99.90;;;;;;20702593;28;20234;-81
2021/08/08 04:49:20;;;;;;;0.33;0.27;;;21.80;99.90;;;;;;20700231;28;20218;-82
2021/08/08 04:59:24;;;;;;;3.50;2.00;;;21.70;99.90;;;;;;20724307;28;20203;-80
2021/08/08 05:09:30;;;;;;;0.20;0.20;;;21.70;99.90;;;;;;20647394;28;20223;-81
2021/08/08 05:19:34;;;;;;;0.47;0.47;;;21.60;99.90;;;;;;20607846;28;20322;-81
2021/08/08 05:29:39;;;;;;;0.83;0.17;;;21.50;99.90;;;;;;20624154;28;20338;-82
2021/08/08 05:39:43;;;;;;;0.83;0.20;;;21.70;99.90;;;;;;20645045;28;20238;-80
2021/08/08 05:49:48;;;;;;;0.27;0.20;;;22.00;99.90;;;;;;20642180;28;20195;-80
2021/08/08 05:59:52;;;;;;;0.77;0.77;;;22.20;99.90;;;;;;20659704;28;20254;-78
2021/08/08 06:09:57;;;;;;;0.20;0.07;;;22.60;99.90;;;;;;20732240;28;20238;-79
2021/08/08 06:20:01;;;;;;;2.08;0.57;;;22.70;99.90;;;;;;20772481;28;20238;-79
2021/08/08 06:30:07;;;;;;;0.60;0.43;;;22.90;99.90;;;;;;20763440;28;20198;-78
2021/08/08 06:40:13;;;;;;;0.20;0.20;;;23.20;99.90;;;;;;20732243;28;20210;-80
2021/08/08 06:50:33;;;;;;;4.10;0.52;;;23.70;99.90;;;;;;20719361;28;20202;-80
2021/08/08 07:00:37;;;;;;;0.30;0.30;;;24.00;99.90;;;;;;20715256;28;20227;-81
2021/08/08 07:10:50;;;;;;;5.15;2.08;;;23.90;99.90;;;;;;20645014;28;20574;-77
2021/08/08 07:21:10;;;;;;;1.10;0.65;;;23.80;99.90;;;;;;20616960;28;20219;-80
2021/08/08 07:31:15;;;;;;;0.50;0.22;;;24.20;99.90;;;;;;20628352;28;20258;-78
2021/08/08 07:41:19;;;;;;;0.20;0.20;;;24.60;99.90;;;;;;20624707;28;20690;-80
2021/08/08 07:51:25;;;;;;;1.80;0.35;;;24.70;99.90;;;;;;20627541;28;20200;-83
2021/08/08 08:01:31;;;;;;;0.30;0.15;;;24.70;99.90;;;;;;20635026;28;20227;-80
2021/08/08 08:11:42;;;;;;;0.80;0.80;;;24.70;99.90;;;;;;20712849;28;20222;-83
2021/08/08 08:21:49;;;;;;;0.30;0.25;;;25.00;99.90;;;;;;20657549;28;20242;-84
2021/08/08 08:31:54;;;;;;;0.20;0.10;;;25.50;99.90;;;;;;20626115;28;20550;-86
2021/08/08 08:42:00;;;;;;;1.50;0.40;;;25.70;99.90;;;;;;20623723;28;20238;-78
2021/08/08 08:52:08;;;;;;;0.22;0.13;;;25.50;99.90;;;;;;20619097;28;20207;-79
2021/08/08 09:02:17;;;;;;;0.50;0.35;;;25.00;99.90;;;;;;20583972;28;20226;-80
2021/08/08 09:12:40;;;;;;;0.70;0.28;;;25.60;99.90;;;;;;20628470;28;20243;-86
2021/08/08 09:23:03;;;;;;;0.30;0.10;;;25.50;99.90;;;;;;20589516;28;20227;-83
2021/08/08 09:33:12;;;;;;;0.45;0.30;;;25.20;99.90;;;;;;20617608;28;20199;-82
2021/08/08 09:43:28;;;;;;;0.20;0.10;;;25.50;99.90;;;;;;20602098;28;20237;-82
2021/08/08 09:53:38;;;;;;;0.95;0.63;;;25.60;99.90;;;;;;20632222;28;20195;-78
2021/08/08 10:03:47;;;;;;;0.20;0.20;;;25.80;99.90;;;;;;20627078;28;21214;-73
2021/08/08 10:14:02;;;;;;;0.20;0.20;;;26.60;99.90;;;;;;20625233;28;20227;-81
2021/08/08 10:24:19;;;;;;;0.25;0.15;;;26.60;99.90;;;;;;20637844;28;20226;-84
2021/08/08 10:34:36;;;;;;;0.60;0.30;;;26.70;99.90;;;;;;20626805;28;20231;-84
2021/08/08 10:44:49;;;;;;;0.82;0.60;;;26.90;99.90;;;;;;20629775;28;20231;-79
2021/08/08 10:54:57;;;;;;;4.13;2.05;;;27.40;99.90;;;;;;20631021;28;20232;-79
2021/08/08 11:05:11;;;;;;;0.35;0.35;;;26.80;99.90;;;;;;20627067;28;20226;-82
2021/08/08 11:15:31;;;;;;;4.05;0.30;;;27.20;99.90;;;;;;20560258;28;20286;-75
2021/08/08 11:26:05;;;;;;;1.30;0.90;;;26.90;99.90;;;;;;20541826;28;20659;-77
2021/08/08 11:59:41;;;;;;;0.82;0.45;;;27.50;99.90;;;;;;20700037;23;20662;-76
2021/08/08 12:09:59;;;;;;;4.78;1.13;;;27.80;99.90;;;;;;20628777;23;20514;-84
2021/08/08 12:20:35;;;;;;;0.30;0.25;;;27.90;99.90;;;;;;20602054;28;20192;-80
2021/08/08 13:13:00;;;;;;;0.63;0.60;;;29.50;99.90;;;;;;20447165;29;20212;-85
2021/08/08 13:34:17;;;;;;;1.27;0.28;;;28.80;99.90;;;;;;20718479;23;20246;-84
2021/08/08 13:44:46;;;;;;;0.85;0.73;;;29.90;99.90;;;;;;20694879;23;20242;-84
2021/08/08 13:55:06;;;;;;;3.85;1.80;;;31.30;99.90;;;;;;20663486;23;20247;-84
2021/08/08 14:16:40;;;;;;;0.63;0.25;;;31.90;99.90;;;;;;20529370;23;20259;-83
2021/08/08 14:26:45;;;;;;;1.17;0.60;;;32.60;99.90;;;;;;21040054;23;20206;-81
2021/08/08 14:36:50;;;;;;;2.67;0.43;;;32.50;99.90;;;;;;21210144;23;1316513;-80
2021/08/08 14:46:57;;;;;;;0.95;0.30;;;32.40;99.90;;;;;;20616410;28;20227;-82
2021/08/08 14:57:06;;;;;;;2.83;0.60;;;31.70;99.90;;;;;;20634998;28;20203;-78
2021/08/08 15:19:37;;;;;;;1.20;0.60;;;31.90;99.90;;;;;;20679709;23;20243;-84
2021/08/08 15:30:06;;;;;;;0.93;0.75;;;32.40;99.90;;;;;;20912460;23;20230;-81
2021/08/08 15:52:05;;;;;;;3.45;1.17;;;31.70;99.90;;;;;;20720082;23;20235;-79
2021/08/08 16:02:54;;;;;;;0.35;0.20;;;30.60;99.90;;;;;;20695565;23;20603;-84
2021/08/08 16:23:50;;;;;;;0.90;0.70;;;28.10;99.90;;;;;;20298847;29;20288;-80
2021/08/08 16:33:54;;;;;;;0.20;0.20;;;27.20;99.90;;;;;;20299600;29;20763;-78
2021/08/08 16:44:00;;;;;;;3.90;0.60;;;27.60;99.90;;;;;;20301951;29;20229;-77
2021/08/08 16:54:04;;;;;;;2.35;0.35;;;27.10;99.90;;;;;;20303938;29;20453;-75
2021/08/08 17:04:10;;;;;;;0.93;0.32;;;27.20;99.90;;;;;;20300548;29;20244;-82
2021/08/08 17:14:29;;;;;;;0.90;0.52;;;27.00;99.90;;;;;;20304050;29;20238;-82
2021/08/08 17:24:59;;;;;;;0.82;0.55;;;27.70;99.90;;;;;;20299963;29;20234;-83
2021/08/08 17:35:56;;;;;;;0.85;0.50;;;28.80;99.90;;;;;;20305025;29;20229;-83
2021/08/08 17:46:34;;;;;;;3.13;1.70;;;29.80;99.90;;;;;;20313123;29;20238;-80
2021/08/08 18:06:58;;;;;;;0.40;0.30;;;29.10;99.90;;;;;;21356204;23;20644;-84
2021/08/08 18:17:52;;;;;;;5.88;0.50;;;26.80;99.90;;;;;;21125212;23;20878;-83
2021/08/08 18:28:11;;;;;;;1.88;0.63;;;25.70;99.90;;;;;;20684827;23;20246;-85
2021/08/08 18:38:31;;;;;;;7.72;0.35;;;25.20;99.90;;;;;;20691436;28;20195;-85
2021/08/08 18:48:40;;;;;;;0.77;0.35;;;24.70;99.90;;;;;;20699633;28;20593;-83
2021/08/08 18:59:04;;;;;;;3.10;2.35;;;24.20;99.90;;;;;;20700103;28;20195;-84
2021/08/08 19:09:10;;;;;;;0.30;0.20;;;24.30;99.90;;;;;;20662810;23;20656;-83
2021/08/08 19:19:13;;;;;;;1.40;0.32;;;24.00;99.90;;;;;;20611509;28;20671;-81
2021/08/08 19:29:48;;;;;;;0.52;0.40;;;24.10;99.90;;;;;;20630149;28;20238;-77
2021/08/08 19:39:52;;;;;;;0.40;0.28;;;23.80;99.90;;;;;;20601126;28;20203;-78
2021/08/08 19:50:04;;;;;;;0.82;0.20;;;23.80;99.90;;;;;;20621263;28;20319;-79
2021/08/08 20:00:10;;;;;;;0.77;0.28;;;23.70;99.90;;;;;;20603782;28;20694;-80
2021/08/08 20:10:20;;;;;;;1.02;0.45;;;23.50;99.90;;;;;;20618558;28;20239;-78
2021/08/08 20:20:24;;;;;;;0.30;0.20;;;23.50;99.90;;;;;;20619596;28;20219;-79
2021/08/08 20:30:43;;;;;;;0.73;0.33;;;23.60;99.90;;;;;;20620490;28;20222;-78
2021/08/08 20:40:50;;;;;;;0.40;0.40;;;23.40;99.90;;;;;;20590834;28;20560;-77
2021/08/08 20:50:56;;;;;;;0.20;0.10;;;23.40;99.90;;;;;;20614577;28;20237;-79
2021/08/08 21:01:06;;;;;;;0.97;0.93;;;23.40;99.90;;;;;;20633129;28;20207;-79
2021/08/08 21:11:12;;;;;;;1.27;0.60;;;23.20;99.90;;;;;;20555937;28;20224;-83
2021/08/08 21:21:16;;;;;;;0.77;0.60;;;22.70;99.90;;;;;;20525645;28;20250;-80
2021/08/08 21:31:21;;;;;;;0.20;0.03;;;22.40;99.90;;;;;;20536426;28;20354;-79
2021/08/08 21:41:25;;;;;;;0.53;0.30;;;22.30;99.90;;;;;;20520397;28;20237;-82
2021/08/08 21:51:30;;;;;;;0.20;0.10;;;22.20;99.90;;;;;;20564669;28;20690;-80
2021/08/08 22:01:34;;;;;;;0.50;0.40;;;22.00;99.90;;;;;;20561575;28;20207;-77
2021/08/08 22:11:40;;;;;;;0.37;0.10;;;22.10;99.90;;;;;;20495528;28;20233;-80
2021/08/08 22:21:44;;;;;;;0.63;0.30;;;21.80;99.90;;;;;;20479607;28;20313;-82
2021/08/08 22:31:49;;;;;;;4.13;0.67;;;21.80;99.90;;;;;;20496852;28;20538;-82
2021/08/08 22:41:53;;;;;;;0.30;0.30;;;22.00;99.90;;;;;;20643938;28;20191;-79
2021/08/08 22:51:58;;;;;;;1.93;0.67;;;21.90;99.90;;;;;;20637290;28;20251;-80
2021/08/08 23:02:02;;;;;;;1.13;0.77;;;21.70;99.90;;;;;;20627414;28;20195;-79
2021/08/08 23:12:08;;;;;;;3.03;0.60;;;21.60;99.90;;;;;;20633918;28;20338;-78
2021/08/08 23:22:13;;;;;;;0.83;0.33;;;21.50;99.90;;;;;;20607533;28;20366;-80
2021/08/08 23:32:19;;;;;;;0.33;0.23;;;21.50;99.90;;;;;;20615705;28;20227;-80
2021/08/08 23:42:23;;;;;;;1.60;0.30;;;21.30;99.90;;;;;;20622730;28;20227;-78
2021/08/08 23:52:28;;;;;;;0.50;0.20;;;21.10;99.90;;;;;;20623029;28;20223;-76
